Time;durP1;ratioP1;P1;durP2;ratioP2;P2;SDS_P1;SDS_P2;PMS_P1;PMS_P2;Temp;Humidity;BMP_temperature;BMP_pressure;BME280_temperature;BME280_humidity;BME280_pressure;Samples;Min_cycle;Max_cycle;Signal;HPM_P1;HPM_P2
2022/10/10 00:00:03;;;;;;;11.73;4.78;;;8.60;99.90;;;;;;5069616;28;20057;-48
2022/10/10 00:02:29;;;;;;;5.25;3.78;;;8.60;99.90;;;;;;5063804;28;20048;-46
2022/10/10 00:04:56;;;;;;;11.85;5.30;;;8.50;99.90;;;;;;5069217;28;20120;-43
2022/10/10 00:07:23;;;;;;;12.60;5.07;;;8.50;99.90;;;;;;5069654;28;20125;-50
2022/10/10 00:09:51;;;;;;;9.88;4.43;;;8.50;99.90;;;;;;5068505;28;20049;-49
2022/10/10 00:12:18;;;;;;;8.80;4.72;;;8.50;99.90;;;;;;5061027;28;20044;-48
2022/10/10 00:14:45;;;;;;;8.73;4.32;;;8.40;99.90;;;;;;5074963;28;20048;-48
2022/10/10 00:17:11;;;;;;;9.45;4.63;;;8.50;99.90;;;;;;5075113;28;20056;-46
2022/10/10 00:19:38;;;;;;;9.98;4.47;;;8.40;99.90;;;;;;5073793;28;20084;-46
2022/10/10 00:22:05;;;;;;;9.45;4.70;;;8.40;99.90;;;;;;5074149;28;20168;-48
2022/10/10 00:24:32;;;;;;;6.60;4.68;;;8.40;99.90;;;;;;5073266;28;20072;-48
2022/10/10 00:27:00;;;;;;;8.80;4.43;;;8.40;99.90;;;;;;5074041;28;20048;-47
2022/10/10 00:29:27;;;;;;;12.32;5.30;;;8.30;99.90;;;;;;5074884;28;20113;-44
2022/10/10 00:31:53;;;;;;;11.85;5.03;;;8.30;99.90;;;;;;5064558;28;20094;-51
2022/10/10 00:34:20;;;;;;;9.38;4.75;;;8.30;99.90;;;;;;5070792;28;20129;-49
2022/10/10 00:36:47;;;;;;;13.68;4.82;;;8.30;99.90;;;;;;5074543;28;20056;-46
2022/10/10 00:39:14;;;;;;;10.02;5.07;;;8.20;99.90;;;;;;5072359;28;20044;-47
2022/10/10 00:41:40;;;;;;;7.45;4.80;;;8.30;99.90;;;;;;5072492;28;20088;-45
2022/10/10 00:44:10;;;;;;;9.23;5.40;;;8.20;99.90;;;;;;5071319;28;20090;-44
2022/10/10 00:46:37;;;;;;;7.32;4.75;;;8.20;99.90;;;;;;5071911;28;20053;-46
2022/10/10 00:49:04;;;;;;;10.25;4.45;;;8.20;99.90;;;;;;5073134;28;20106;-47
2022/10/10 00:51:31;;;;;;;15.07;5.65;;;8.10;99.90;;;;;;5073973;28;20052;-46
2022/10/10 00:53:59;;;;;;;7.32;5.00;;;8.20;99.90;;;;;;5072692;28;20128;-48
2022/10/10 00:56:30;;;;;;;7.40;4.78;;;8.10;99.90;;;;;;5066152;28;20087;-47
2022/10/10 00:58:59;;;;;;;11.68;4.90;;;8.10;99.90;;;;;;5066538;28;20473;-47
2022/10/10 01:01:28;;;;;;;8.75;5.15;;;8.10;99.90;;;;;;5073600;28;20088;-48
2022/10/10 01:04:00;;;;;;;9.40;4.70;;;8.10;99.90;;;;;;5073443;28;20102;-48
2022/10/10 01:06:27;;;;;;;10.93;4.70;;;8.10;99.90;;;;;;5072347;28;20561;-47
2022/10/10 01:08:54;;;;;;;12.57;5.35;;;8.10;99.90;;;;;;5072991;28;20093;-44
2022/10/10 01:11:32;;;;;;;16.52;5.95;;;8.10;99.90;;;;;;5073074;28;20040;-46
2022/10/10 01:14:01;;;;;;;11.02;5.30;;;8.10;99.90;;;;;;5073260;28;20080;-47
2022/10/10 01:16:32;;;;;;;11.13;5.03;;;8.10;99.90;;;;;;5072959;28;20108;-48
2022/10/10 01:19:02;;;;;;;10.60;5.55;;;8.10;99.90;;;;;;5068315;28;20072;-46
2022/10/10 01:21:32;;;;;;;9.13;5.32;;;8.10;99.90;;;;;;5066096;28;20128;-47
2022/10/10 01:24:26;;;;;;;12.27;5.22;;;8.10;99.90;;;;;;5070183;28;20060;-46
2022/10/10 01:27:23;;;;;;;7.63;5.18;;;8.10;99.90;;;;;;5071503;28;20079;-47
2022/10/10 01:29:52;;;;;;;10.88;5.28;;;8.20;99.90;;;;;;5059911;28;20493;-46
2022/10/10 01:32:24;;;;;;;8.98;4.97;;;8.20;99.90;;;;;;5067103;28;20064;-48
2022/10/10 01:34:56;;;;;;;10.15;5.25;;;8.20;99.90;;;;;;5071152;28;20075;-46
2022/10/10 01:37:28;;;;;;;12.55;5.05;;;8.20;99.90;;;;;;5072842;28;20495;-47
2022/10/10 01:39:56;;;;;;;11.00;4.78;;;8.20;99.90;;;;;;5072145;28;20048;-46
2022/10/10 01:42:24;;;;;;;8.70;5.25;;;8.20;99.90;;;;;;5069820;28;20088;-38
2022/10/10 01:44:53;;;;;;;8.38;4.75;;;8.20;99.90;;;;;;5063942;28;20084;-50
2022/10/10 01:47:20;;;;;;;8.18;5.07;;;8.20;99.90;;;;;;5064126;28;20048;-49
2022/10/10 01:49:47;;;;;;;9.70;5.38;;;8.30;99.90;;;;;;5063777;28;20056;-47
2022/10/10 01:52:18;;;;;;;11.13;5.38;;;8.30;99.90;;;;;;5069572;28;20037;-47
2022/10/10 01:54:50;;;;;;;8.60;5.10;;;8.30;99.90;;;;;;5072210;28;20088;-49
2022/10/10 01:57:20;;;;;;;9.77;5.60;;;8.30;99.90;;;;;;5070776;28;20076;-46
2022/10/10 01:59:57;;;;;;;7.65;5.10;;;8.30;99.90;;;;;;5055684;28;20094;-46
2022/10/10 02:02:27;;;;;;;10.82;5.28;;;8.30;99.90;;;;;;5062635;28;20079;-48
2022/10/10 02:04:56;;;;;;;8.57;5.30;;;8.30;99.90;;;;;;5071802;28;20056;-45
2022/10/10 02:07:26;;;;;;;11.52;5.20;;;8.30;99.90;;;;;;5072558;28;20051;-45
2022/10/10 02:09:53;;;;;;;13.38;5.68;;;8.30;99.90;;;;;;5067353;28;20094;-49
2022/10/10 02:12:20;;;;;;;11.98;5.47;;;8.30;99.90;;;;;;5071278;28;20049;-46
2022/10/10 02:14:48;;;;;;;7.20;5.28;;;8.30;99.90;;;;;;5073227;28;20090;-49
2022/10/10 02:17:16;;;;;;;8.80;5.55;;;8.30;99.90;;;;;;5071399;28;20146;-48
2022/10/10 02:19:44;;;;;;;8.95;5.93;;;8.30;99.90;;;;;;5072025;28;20044;-47
2022/10/10 02:22:11;;;;;;;9.63;5.38;;;8.30;99.90;;;;;;5072645;28;20102;-46
2022/10/10 02:24:38;;;;;;;13.00;6.93;;;8.30;99.90;;;;;;5071596;28;20070;-47
2022/10/10 02:27:08;;;;;;;10.73;5.88;;;8.20;99.90;;;;;;5072760;28;20562;-47
2022/10/10 02:29:36;;;;;;;10.18;5.80;;;8.30;99.90;;;;;;5071655;28;20073;-46
2022/10/10 02:32:04;;;;;;;9.90;5.38;;;8.30;99.90;;;;;;5069134;28;20079;-44
2022/10/10 02:34:35;;;;;;;8.48;5.50;;;8.30;99.90;;;;;;5087200;28;20090;-47
2022/10/10 02:37:03;;;;;;;8.43;5.65;;;8.30;99.90;;;;;;5072001;28;20528;-46
2022/10/10 02:39:31;;;;;;;8.48;5.50;;;8.20;99.90;;;;;;5070697;28;20044;-49
2022/10/10 02:41:58;;;;;;;10.25;5.15;;;8.30;99.90;;;;;;5070633;28;20072;-45
2022/10/10 02:44:25;;;;;;;11.25;6.35;;;8.30;99.90;;;;;;5063355;28;20088;-46
2022/10/10 02:46:52;;;;;;;10.90;5.82;;;8.30;99.90;;;;;;5072324;28;20052;-47
2022/10/10 02:49:23;;;;;;;10.95;6.38;;;8.30;99.90;;;;;;5070578;28;20393;-51
2022/10/10 02:51:51;;;;;;;14.50;6.45;;;8.30;99.90;;;;;;5071899;28;20106;-48
2022/10/10 02:54:18;;;;;;;10.82;6.30;;;8.40;99.90;;;;;;5057474;28;20049;-49
2022/10/10 02:56:48;;;;;;;11.00;5.95;;;8.30;99.90;;;;;;5065865;28;20389;-49
2022/10/10 02:59:14;;;;;;;11.98;5.95;;;8.30;99.90;;;;;;5068631;28;20048;-47
2022/10/10 03:01:41;;;;;;;9.90;6.10;;;8.30;99.90;;;;;;5071183;28;20125;-49
2022/10/10 03:04:08;;;;;;;9.27;5.65;;;8.30;99.90;;;;;;5071781;28;20055;-48
2022/10/10 03:06:35;;;;;;;9.70;6.20;;;8.30;99.90;;;;;;5072754;28;20098;-46
2022/10/10 03:09:03;;;;;;;7.97;5.85;;;8.40;99.90;;;;;;5069818;28;20450;-48
2022/10/10 03:11:30;;;;;;;10.25;5.53;;;8.40;99.90;;;;;;5071119;28;20098;-47
2022/10/10 03:13:57;;;;;;;12.35;6.38;;;8.40;99.90;;;;;;5067372;28;20048;-46
2022/10/10 03:16:23;;;;;;;9.85;5.97;;;8.40;99.90;;;;;;5065474;28;20102;-47
2022/10/10 03:18:50;;;;;;;11.88;6.60;;;8.40;99.90;;;;;;5070556;28;20084;-46
2022/10/10 03:21:17;;;;;;;10.88;6.20;;;8.40;99.90;;;;;;5072592;28;20048;-49
2022/10/10 03:23:44;;;;;;;13.60;6.43;;;8.30;99.90;;;;;;5071127;28;20048;-49
2022/10/10 03:26:12;;;;;;;10.68;5.88;;;8.40;99.90;;;;;;5070509;28;20408;-47
2022/10/10 03:28:39;;;;;;;9.13;6.05;;;8.40;99.90;;;;;;5070718;28;20102;-49
2022/10/10 03:31:06;;;;;;;9.77;5.88;;;8.30;99.90;;;;;;5070221;28;20076;-47
2022/10/10 03:33:33;;;;;;;11.25;6.75;;;8.40;99.90;;;;;;5067816;28;20491;-47
2022/10/10 03:36:00;;;;;;;11.93;6.30;;;8.40;99.90;;;;;;5070634;28;20453;-45
2022/10/10 03:38:27;;;;;;;11.25;6.30;;;8.40;99.90;;;;;;5070841;28;20101;-48
2022/10/10 03:40:54;;;;;;;13.07;6.15;;;8.40;99.90;;;;;;5071267;28;20101;-44
2022/10/10 03:43:22;;;;;;;13.00;6.15;;;8.40;99.90;;;;;;5060371;28;20125;-48
2022/10/10 03:45:49;;;;;;;12.30;6.22;;;8.40;99.90;;;;;;5068810;28;20139;-51
2022/10/10 03:48:16;;;;;;;11.18;6.63;;;8.40;99.90;;;;;;5072460;28;20048;-46
2022/10/10 03:50:43;;;;;;;11.77;6.60;;;8.30;99.90;;;;;;5070395;28;20053;-47
2022/10/10 03:53:09;;;;;;;10.63;6.60;;;8.30;99.90;;;;;;5067132;28;20136;-47
2022/10/10 03:55:38;;;;;;;10.85;6.70;;;8.30;99.90;;;;;;5066917;28;20386;-48
2022/10/10 03:58:05;;;;;;;14.30;7.15;;;8.30;99.90;;;;;;5066324;28;20458;-49
2022/10/10 04:00:33;;;;;;;11.98;6.55;;;8.30;99.90;;;;;;5070193;28;20049;-48
2022/10/10 04:03:04;;;;;;;9.85;6.50;;;8.30;99.90;;;;;;5068954;28;20083;-50
2022/10/10 04:05:32;;;;;;;12.32;6.30;;;8.20;99.90;;;;;;5075055;28;20097;-48
2022/10/10 04:07:59;;;;;;;9.52;6.20;;;8.30;99.90;;;;;;5072911;28;20048;-49
2022/10/10 04:10:26;;;;;;;12.15;7.38;;;8.20;99.90;;;;;;5067442;28;20081;-48
2022/10/10 04:12:52;;;;;;;12.68;7.30;;;8.20;99.90;;;;;;5071613;28;20127;-47
2022/10/10 04:15:19;;;;;;;11.88;7.30;;;8.20;99.90;;;;;;5071163;28;20092;-42
2022/10/10 04:17:48;;;;;;;11.73;6.88;;;8.20;99.90;;;;;;5075871;28;20049;-44
2022/10/10 04:20:15;;;;;;;15.18;7.43;;;8.20;99.90;;;;;;5072913;28;20052;-46
2022/10/10 04:22:42;;;;;;;15.88;7.90;;;8.20;99.90;;;;;;5066065;28;20048;-48
2022/10/10 04:25:09;;;;;;;17.38;8.02;;;8.20;99.90;;;;;;5075288;28;20492;-47
2022/10/10 04:27:36;;;;;;;12.93;7.28;;;8.20;99.90;;;;;;5070931;28;20113;-47
2022/10/10 04:30:03;;;;;;;14.60;7.95;;;8.20;99.90;;;;;;5069782;28;20066;-46
2022/10/10 04:32:30;;;;;;;16.58;8.00;;;8.20;99.90;;;;;;5073101;28;20109;-46
2022/10/10 04:34:58;;;;;;;11.18;7.50;;;8.20;99.90;;;;;;5072384;28;20088;-44
2022/10/10 04:37:25;;;;;;;14.18;8.43;;;8.20;99.90;;;;;;5072865;28;20045;-45
2022/10/10 04:39:52;;;;;;;14.93;7.53;;;8.20;99.90;;;;;;5074246;28;20068;-46
2022/10/10 04:42:18;;;;;;;11.02;7.00;;;8.20;99.90;;;;;;5071928;28;20549;-49
2022/10/10 04:44:45;;;;;;;15.52;7.85;;;8.20;99.90;;;;;;5057056;28;20099;-44
2022/10/10 04:47:12;;;;;;;13.40;7.70;;;8.20;99.90;;;;;;5070940;28;20040;-47
2022/10/10 04:49:40;;;;;;;13.85;7.80;;;8.10;99.90;;;;;;5072426;28;20204;-46
2022/10/10 04:52:08;;;;;;;12.30;7.13;;;8.10;99.90;;;;;;5063710;28;20046;-47
2022/10/10 04:54:35;;;;;;;13.80;7.80;;;8.10;99.90;;;;;;5072427;28;20052;-47
2022/10/10 04:57:02;;;;;;;13.32;7.68;;;8.10;99.90;;;;;;5074232;28;20094;-47
2022/10/10 04:59:29;;;;;;;11.75;6.88;;;8.10;99.90;;;;;;5070147;28;20114;-44
2022/10/10 05:01:56;;;;;;;12.73;7.80;;;8.10;99.90;;;;;;5073203;28;20078;-47
2022/10/10 05:04:22;;;;;;;13.43;7.50;;;8.10;99.90;;;;;;5073795;28;20075;-47
2022/10/10 05:06:49;;;;;;;17.95;7.80;;;8.10;99.90;;;;;;5070564;28;20095;-46
2022/10/10 05:09:17;;;;;;;16.08;7.68;;;8.10;99.90;;;;;;5072738;28;20094;-46
2022/10/10 05:11:44;;;;;;;10.65;7.10;;;8.10;99.90;;;;;;5070536;28;20452;-47
2022/10/10 05:14:11;;;;;;;18.48;7.68;;;8.10;99.90;;;;;;5072469;28;20732;-47
2022/10/10 05:16:38;;;;;;;13.05;7.80;;;8.10;99.90;;;;;;5053654;28;20522;-45
2022/10/10 05:19:04;;;;;;;12.02;8.00;;;8.10;99.90;;;;;;5071714;28;20106;-45
2022/10/10 05:21:31;;;;;;;14.45;7.28;;;8.10;99.90;;;;;;5072881;28;20056;-47
2022/10/10 05:23:58;;;;;;;13.75;7.57;;;8.20;99.90;;;;;;5074326;28;20080;-48
2022/10/10 05:26:26;;;;;;;14.63;8.15;;;8.10;99.90;;;;;;5072978;28;20053;-47
2022/10/10 05:28:53;;;;;;;13.23;8.85;;;8.10;99.90;;;;;;5072810;28;20140;-47
2022/10/10 05:31:20;;;;;;;13.52;8.25;;;8.10;99.90;;;;;;5068583;28;20106;-51
2022/10/10 05:33:47;;;;;;;18.60;8.07;;;8.10;99.90;;;;;;5072866;28;20057;-50
2022/10/10 05:36:13;;;;;;;12.40;8.50;;;8.00;99.90;;;;;;5070140;28;20163;-45
2022/10/10 05:38:40;;;;;;;13.88;8.35;;;8.10;99.90;;;;;;5067685;28;20083;-46
2022/10/10 05:41:07;;;;;;;13.48;8.90;;;8.10;99.90;;;;;;5063873;28;20048;-46
2022/10/10 05:43:35;;;;;;;14.82;8.02;;;8.10;99.90;;;;;;5071796;28;20484;-44
2022/10/10 05:46:02;;;;;;;15.75;8.15;;;8.00;99.90;;;;;;5070498;28;20110;-46
2022/10/10 05:48:32;;;;;;;15.82;9.13;;;8.00;99.90;;;;;;5059044;28;20085;-46
2022/10/10 05:50:59;;;;;;;17.85;9.30;;;8.00;99.90;;;;;;5066525;28;20052;-46
2022/10/10 05:53:26;;;;;;;13.57;8.20;;;8.00;99.90;;;;;;5070243;28;20488;-46
2022/10/10 05:55:53;;;;;;;12.18;7.70;;;8.00;99.90;;;;;;5071020;28;20048;-46
2022/10/10 05:58:20;;;;;;;19.00;8.23;;;8.00;99.90;;;;;;5069803;28;20097;-44
2022/10/10 06:00:48;;;;;;;14.93;8.10;;;7.90;99.90;;;;;;5069569;28;20447;-44
2022/10/10 06:03:16;;;;;;;12.55;8.30;;;8.00;99.90;;;;;;5070548;28;20094;-45
2022/10/10 06:05:43;;;;;;;13.75;8.48;;;8.00;99.90;;;;;;5071183;28;20048;-45
2022/10/10 06:08:09;;;;;;;12.77;9.05;;;7.90;99.90;;;;;;5072437;28;20084;-47
2022/10/10 06:10:36;;;;;;;13.40;8.73;;;8.00;99.90;;;;;;5059916;28;20120;-46
2022/10/10 06:13:03;;;;;;;17.05;8.48;;;8.00;99.90;;;;;;5061658;28;20107;-47
2022/10/10 06:15:30;;;;;;;13.45;8.07;;;8.00;99.90;;;;;;5072980;28;20062;-49
2022/10/10 06:17:58;;;;;;;15.27;8.57;;;8.00;99.90;;;;;;5078717;28;20508;-47
2022/10/10 06:20:25;;;;;;;15.45;8.07;;;8.00;99.90;;;;;;5058695;28;20083;-37
2022/10/10 06:22:52;;;;;;;23.48;8.90;;;8.00;99.90;;;;;;5064164;28;20144;-46
2022/10/10 06:25:19;;;;;;;16.45;9.73;;;8.00;99.90;;;;;;5062585;28;20048;-42
2022/10/10 06:27:45;;;;;;;15.18;8.85;;;8.00;99.90;;;;;;5070884;28;20098;-48
2022/10/10 06:30:15;;;;;;;19.17;8.30;;;8.00;99.90;;;;;;5071992;28;20091;-47
2022/10/10 06:32:43;;;;;;;17.45;8.50;;;8.00;99.90;;;;;;5072351;28;20083;-43
2022/10/10 06:35:12;;;;;;;12.93;8.70;;;8.00;99.90;;;;;;5072188;28;20039;-47
2022/10/10 06:37:38;;;;;;;13.30;8.25;;;8.10;99.90;;;;;;5072425;28;20056;-44
2022/10/10 06:40:06;;;;;;;14.70;8.15;;;8.10;99.90;;;;;;5072011;28;20416;-42
2022/10/10 06:42:33;;;;;;;15.68;7.90;;;8.00;99.90;;;;;;5071947;28;20173;-46
2022/10/10 06:45:00;;;;;;;13.02;8.45;;;8.10;99.90;;;;;;5071190;28;20094;-46
2022/10/10 06:47:27;;;;;;;21.13;8.55;;;8.20;99.90;;;;;;5071623;28;20056;-45
2022/10/10 06:49:54;;;;;;;14.52;7.55;;;8.20;99.90;;;;;;5070022;28;20474;-47
2022/10/10 06:52:22;;;;;;;15.40;8.25;;;8.20;99.90;;;;;;5066294;28;20130;-47
2022/10/10 06:54:48;;;;;;;15.85;9.05;;;8.20;99.90;;;;;;5061048;28;20123;-40
2022/10/10 06:57:15;;;;;;;13.35;8.45;;;8.30;99.90;;;;;;5069211;28;20120;-45
2022/10/10 06:59:42;;;;;;;14.73;8.93;;;8.40;99.90;;;;;;5071426;28;20420;-45
2022/10/10 07:02:11;;;;;;;17.80;9.63;;;8.40;99.90;;;;;;5070790;28;20056;-50
2022/10/10 07:04:38;;;;;;;16.40;9.35;;;8.50;99.90;;;;;;5070353;28;20052;-48
2022/10/10 07:07:05;;;;;;;14.85;8.60;;;8.50;99.90;;;;;;5071795;28;20110;-47
2022/10/10 07:09:33;;;;;;;19.40;8.60;;;8.60;99.90;;;;;;5069294;28;20052;-46
2022/10/10 07:12:00;;;;;;;18.25;9.00;;;8.70;99.90;;;;;;5069247;28;20103;-47
2022/10/10 07:14:27;;;;;;;14.20;8.13;;;8.70;99.90;;;;;;5069491;28;20484;-47
2022/10/10 07:16:53;;;;;;;15.75;8.95;;;8.80;99.90;;;;;;5070682;28;20049;-44
2022/10/10 07:19:23;;;;;;;17.05;8.88;;;8.80;99.90;;;;;;5070514;28;20057;-47
2022/10/10 07:21:50;;;;;;;13.70;8.73;;;8.90;99.90;;;;;;5070191;28;20224;-51
2022/10/10 07:24:17;;;;;;;13.35;8.20;;;8.90;99.90;;;;;;5067711;28;20052;-47
2022/10/10 07:26:45;;;;;;;15.57;8.60;;;9.00;99.90;;;;;;5071071;28;20474;-45
2022/10/10 07:29:12;;;;;;;18.55;9.00;;;9.00;99.90;;;;;;5070356;28;20098;-45
2022/10/10 07:31:39;;;;;;;18.05;8.95;;;9.00;99.90;;;;;;5071385;28;20053;-44
2022/10/10 07:34:05;;;;;;;13.13;8.88;;;9.10;99.90;;;;;;5070116;28;20080;-41
2022/10/10 07:36:32;;;;;;;17.23;9.02;;;9.10;99.90;;;;;;5071636;28;20469;-45
2022/10/10 07:38:59;;;;;;;15.60;8.57;;;9.10;99.90;;;;;;5068825;28;20061;-46
2022/10/10 07:41:26;;;;;;;16.30;8.57;;;9.20;99.90;;;;;;5068319;28;20059;-44
2022/10/10 07:43:57;;;;;;;16.08;8.65;;;9.20;99.90;;;;;;5070346;28;20048;-45
2022/10/10 07:46:24;;;;;;;19.65;8.82;;;9.20;99.90;;;;;;5071341;28;20094;-45
2022/10/10 07:48:51;;;;;;;13.75;9.00;;;9.30;99.90;;;;;;5071409;28;20052;-46
2022/10/10 07:51:17;;;;;;;13.63;8.82;;;9.40;99.90;;;;;;5071296;28;20057;-42
2022/10/10 07:53:44;;;;;;;17.08;9.55;;;9.50;99.90;;;;;;5066366;28;20077;-44
2022/10/10 07:56:11;;;;;;;13.63;8.60;;;9.60;99.90;;;;;;5051167;28;20524;-45
2022/10/10 07:58:38;;;;;;;18.35;8.32;;;9.60;99.90;;;;;;5064516;28;20053;-47
2022/10/10 08:01:07;;;;;;;19.25;9.20;;;9.70;99.90;;;;;;5070555;28;20052;-47
2022/10/10 08:03:34;;;;;;;15.77;9.18;;;9.80;99.90;;;;;;5068529;28;20393;-41
2022/10/10 08:06:02;;;;;;;14.45;8.00;;;9.90;99.90;;;;;;5067999;28;20593;-46
2022/10/10 08:08:29;;;;;;;14.55;7.93;;;10.00;99.90;;;;;;5050114;28;20052;-44
2022/10/10 08:10:56;;;;;;;12.10;8.23;;;10.10;99.90;;;;;;5061948;28;20105;-42
2022/10/10 08:13:23;;;;;;;18.15;8.88;;;10.20;99.90;;;;;;5069684;28;20052;-46
2022/10/10 08:15:50;;;;;;;14.55;8.95;;;10.40;99.90;;;;;;5070554;28;20493;-47
2022/10/10 08:18:19;;;;;;;13.00;8.30;;;10.50;99.90;;;;;;5070197;28;20037;-41
2022/10/10 08:20:45;;;;;;;16.55;8.55;;;10.60;99.90;;;;;;5058742;28;20102;-41
2022/10/10 08:23:12;;;;;;;16.05;8.27;;;10.80;99.90;;;;;;5067776;28;20052;-47
2022/10/10 08:25:39;;;;;;;14.35;8.05;;;11.00;99.90;;;;;;5070747;28;20404;-46
2022/10/10 08:28:06;;;;;;;17.92;9.20;;;11.10;99.90;;;;;;5071107;28;20102;-47
2022/10/10 08:30:33;;;;;;;14.48;8.07;;;11.10;99.90;;;;;;5069352;28;20554;-47
2022/10/10 08:33:00;;;;;;;11.27;7.95;;;11.20;99.90;;;;;;5071860;28;20079;-45
2022/10/10 08:35:28;;;;;;;13.65;8.32;;;11.30;99.90;;;;;;5073171;28;20045;-45
2022/10/10 08:37:55;;;;;;;13.95;8.15;;;11.50;99.90;;;;;;5073077;28;20057;-43
2022/10/10 08:40:22;;;;;;;17.33;7.88;;;11.60;99.90;;;;;;5073661;28;20086;-42
2022/10/10 08:42:50;;;;;;;18.23;8.10;;;11.90;99.90;;;;;;5074291;28;20127;-45
2022/10/10 08:45:19;;;;;;;13.07;7.80;;;12.00;99.90;;;;;;5074592;28;20409;-44
2022/10/10 08:47:48;;;;;;;13.73;8.20;;;12.20;99.90;;;;;;5073222;28;20049;-46
2022/10/10 08:50:16;;;;;;;14.13;7.97;;;12.30;99.90;;;;;;5073063;28;20052;-43
2022/10/10 08:52:47;;;;;;;12.70;8.38;;;12.50;99.90;;;;;;5062522;28;20125;-43
2022/10/10 08:55:16;;;;;;;14.18;7.53;;;12.60;99.90;;;;;;5073906;28;20510;-47
2022/10/10 08:57:48;;;;;;;12.90;7.45;;;12.80;99.90;;;;;;5062711;28;20057;-50
2022/10/10 09:00:16;;;;;;;16.30;7.43;;;13.00;99.90;;;;;;5070023;28;20098;-50
2022/10/10 09:02:47;;;;;;;14.13;7.38;;;13.10;99.90;;;;;;5056586;28;20102;-45
2022/10/10 09:05:16;;;;;;;13.07;6.88;;;13.20;99.90;;;;;;5055598;28;20098;-45
2022/10/10 09:08:04;;;;;;;13.85;7.65;;;13.20;99.90;;;;;;5072910;28;20458;-43
2022/10/10 09:10:33;;;;;;;17.70;8.07;;;13.20;99.90;;;;;;5072430;28;20134;-45
2022/10/10 09:13:05;;;;;;;15.43;7.93;;;13.30;99.90;;;;;;5054285;28;20049;-45
2022/10/10 09:15:33;;;;;;;;;;;13.40;99.90;;;;;;5063423;28;20063;-47
2022/10/10 09:18:02;;;;;;;14.30;7.40;;;13.60;99.90;;;;;;5073823;28;19945;-41
2022/10/10 09:20:36;;;;;;;13.43;7.80;;;13.70;99.90;;;;;;5072882;28;20114;-41
2022/10/10 09:23:12;;;;;;;12.02;7.32;;;13.70;99.90;;;;;;5071217;28;20291;-46
2022/10/10 09:25:40;;;;;;;9.70;6.82;;;13.70;99.90;;;;;;5071486;28;20052;-44
2022/10/10 09:28:18;;;;;;;12.57;7.60;;;13.80;99.90;;;;;;5073588;28;20080;-43
2022/10/10 09:30:46;;;;;;;12.48;7.40;;;13.90;99.90;;;;;;5072884;28;20476;-43
2022/10/10 09:33:20;;;;;;;10.10;7.00;;;14.10;99.90;;;;;;5071047;28;20072;-45
2022/10/10 09:35:46;;;;;;;13.73;7.10;;;14.30;99.90;;;;;;5066818;28;20045;-43
2022/10/10 09:38:23;;;;;;;13.88;6.63;;;14.40;99.90;;;;;;5071323;28;20147;-42
2022/10/10 09:40:52;;;;;;;14.20;7.03;;;14.70;99.90;;;;;;5072465;28;20052;-43
2022/10/10 09:43:20;;;;;;;17.30;7.18;;;14.80;99.90;;;;;;5073166;28;20057;-47
2022/10/10 09:45:48;;;;;;;14.65;7.22;;;14.80;99.90;;;;;;5070808;28;20173;-44
2022/10/10 09:48:15;;;;;;;16.92;7.30;;;14.90;99.90;;;;;;5072951;28;20102;-46
2022/10/10 09:50:42;;;;;;;12.80;7.10;;;15.00;99.90;;;;;;5067886;28;20060;-42
2022/10/10 09:53:10;;;;;;;13.57;6.88;;;15.00;99.90;;;;;;5072958;28;20052;-45
2022/10/10 09:55:38;;;;;;;16.52;7.68;;;15.00;99.90;;;;;;5071994;28;20214;-41
2022/10/10 09:58:12;;;;;;;12.57;6.65;;;15.00;99.90;;;;;;5070896;28;20110;-43
2022/10/10 10:00:39;;;;;;;17.05;7.32;;;15.10;99.90;;;;;;5072289;28;20106;-46
2022/10/10 10:03:11;;;;;;;13.48;7.18;;;15.10;99.90;;;;;;5072039;28;20500;-44
2022/10/10 10:05:38;;;;;;;14.63;7.10;;;15.10;99.90;;;;;;5072890;28;20052;-47
2022/10/10 10:08:05;;;;;;;16.13;6.82;;;15.10;99.90;;;;;;5072162;28;20048;-42
2022/10/10 10:10:34;;;;;;;14.20;6.95;;;15.10;99.90;;;;;;5071212;28;20052;-45
2022/10/10 10:13:02;;;;;;;12.73;6.90;;;15.10;99.90;;;;;;5070654;28;20083;-44
2022/10/10 10:15:30;;;;;;;10.43;6.45;;;15.20;99.90;;;;;;5071466;28;20679;-44
2022/10/10 10:18:09;;;;;;;12.05;6.72;;;15.30;99.90;;;;;;5072339;28;20048;-46
2022/10/10 10:20:38;;;;;;;11.82;6.82;;;15.40;99.90;;;;;;5072135;28;20086;-42
2022/10/10 10:23:05;;;;;;;12.45;6.45;;;15.40;99.90;;;;;;5070512;28;20562;-43
2022/10/10 10:25:34;;;;;;;15.15;7.68;;;15.50;99.90;;;;;;5070244;28;20060;-46
2022/10/10 10:28:20;;;;;;;14.50;6.55;;;15.60;99.90;;;;;;5070613;28;20072;-44
2022/10/10 10:30:47;;;;;;;14.88;7.00;;;15.60;99.90;;;;;;5069088;28;20063;-42
2022/10/10 10:33:18;;;;;;;11.73;6.50;;;15.80;99.90;;;;;;5072329;28;20386;-46
2022/10/10 10:35:47;;;;;;;12.30;6.40;;;15.80;99.90;;;;;;5070717;28;20550;-46
2022/10/10 10:38:24;;;;;;;12.45;6.70;;;16.00;99.90;;;;;;5071948;28;20044;-43
2022/10/10 10:40:56;;;;;;;14.13;6.32;;;16.10;99.90;;;;;;5069296;28;20044;-41
2022/10/10 10:43:32;;;;;;;11.52;6.50;;;16.40;99.90;;;;;;5063374;28;20749;-45
2022/10/10 10:46:05;;;;;;;10.93;6.20;;;16.50;99.90;;;;;;5071215;28;20098;-44
2022/10/10 10:48:39;;;;;;;19.75;6.75;;;16.70;99.90;;;;;;5070981;28;20877;-44
2022/10/10 10:51:09;;;;;;;16.10;6.70;;;16.70;99.90;;;;;;5053838;28;20132;-44
2022/10/10 10:53:39;;;;;;;13.45;6.35;;;16.60;99.90;;;;;;5076514;28;20489;-45
2022/10/10 10:56:11;;;;;;;11.55;6.32;;;16.60;99.90;;;;;;5068176;28;20110;-45
2022/10/10 10:58:55;;;;;;;10.80;6.10;;;16.50;99.90;;;;;;5071852;28;20047;-49
2022/10/10 11:01:25;;;;;;;14.90;6.60;;;16.40;99.90;;;;;;5071488;28;20048;-48
2022/10/10 11:03:57;;;;;;;13.18;5.78;;;16.40;99.90;;;;;;5071992;28;20415;-45
2022/10/10 11:06:41;;;;;;;17.77;6.55;;;16.30;99.90;;;;;;5071974;28;20044;-49
2022/10/10 11:09:12;;;;;;;10.15;5.90;;;16.30;99.90;;;;;;5059455;28;20056;-47
2022/10/10 11:11:51;;;;;;;11.85;6.03;;;16.30;99.90;;;;;;5068819;28;20053;-45
2022/10/10 11:14:26;;;;;;;10.82;6.07;;;16.30;99.90;;;;;;5070376;28;20088;-44
2022/10/10 11:16:55;;;;;;;13.07;6.35;;;16.20;99.90;;;;;;5067607;28;20052;-44
2022/10/10 11:19:26;;;;;;;14.38;6.05;;;16.20;99.90;;;;;;5070925;28;20109;-44
2022/10/10 11:21:56;;;;;;;19.90;7.00;;;16.20;99.90;;;;;;5070680;28;20064;-45
2022/10/10 11:24:27;;;;;;;15.25;6.32;;;16.10;99.90;;;;;;5070701;28;20048;-41
2022/10/10 11:26:56;;;;;;;15.45;7.05;;;16.10;99.90;;;;;;5070699;28;20048;-44
2022/10/10 11:29:26;;;;;;;12.15;6.53;;;16.00;99.90;;;;;;5066900;28;20127;-40
2022/10/10 11:31:54;;;;;;;10.65;6.30;;;16.00;99.90;;;;;;5069636;28;20496;-45
2022/10/10 11:34:22;;;;;;;13.73;6.80;;;16.00;99.90;;;;;;5059666;28;20123;-47
2022/10/10 11:36:49;;;;;;;12.32;7.15;;;15.90;99.90;;;;;;5052417;28;20051;-44
2022/10/10 11:39:18;;;;;;;16.23;7.03;;;15.90;99.90;;;;;;5062675;28;20094;-43
2022/10/10 11:41:47;;;;;;;17.23;7.50;;;15.90;99.90;;;;;;5071524;28;20110;-45
2022/10/10 11:44:17;;;;;;;14.75;7.38;;;15.80;99.90;;;;;;5070343;28;20102;-43
2022/10/10 11:46:46;;;;;;;11.52;6.63;;;15.80;99.90;;;;;;5070542;28;20098;-43
2022/10/10 11:49:17;;;;;;;18.17;7.70;;;15.70;99.90;;;;;;5069705;28;20076;-43
2022/10/10 11:51:49;;;;;;;16.38;7.82;;;15.60;99.90;;;;;;5068035;28;20080;-41
2022/10/10 11:54:24;;;;;;;18.00;7.90;;;15.70;99.90;;;;;;5069896;28;20098;-48
2022/10/10 11:56:51;;;;;;;17.55;6.93;;;15.60;99.90;;;;;;5070243;28;20378;-43
2022/10/10 11:59:24;;;;;;;16.08;7.60;;;15.60;99.90;;;;;;5069679;28;20084;-43
2022/10/10 12:01:53;;;;;;;15.88;7.13;;;15.50;99.90;;;;;;5070588;28;20045;-44
2022/10/10 12:04:20;;;;;;;13.02;6.97;;;15.50;99.90;;;;;;5071390;28;20072;-45
2022/10/10 12:06:48;;;;;;;17.65;7.70;;;15.50;99.90;;;;;;5070062;28;20048;-44
2022/10/10 12:09:16;;;;;;;14.02;7.32;;;15.50;99.90;;;;;;5074337;28;20439;-46
2022/10/10 12:11:45;;;;;;;11.93;6.95;;;15.60;99.90;;;;;;5073442;28;20052;-48
2022/10/10 12:14:15;;;;;;;17.30;8.25;;;15.60;99.90;;;;;;5073147;28;20103;-49
2022/10/10 12:16:41;;;;;;;12.70;6.93;;;15.50;99.90;;;;;;5074117;28;20549;-44
2022/10/10 12:19:16;;;;;;;15.23;7.18;;;15.50;99.90;;;;;;5073302;28;20052;-48
2022/10/10 12:21:54;;;;;;;16.08;7.10;;;15.50;99.90;;;;;;5072827;28;20074;-46
2022/10/10 12:24:21;;;;;;;18.63;8.07;;;15.50;99.90;;;;;;5073105;28;20417;-43
2022/10/10 12:27:09;;;;;;;14.23;7.32;;;15.50;99.90;;;;;;5074345;28;20084;-46
2022/10/10 12:29:43;;;;;;;19.17;7.60;;;15.50;99.90;;;;;;5074000;28;20048;-49
2022/10/10 12:32:23;;;;;;;14.73;7.00;;;15.40;99.90;;;;;;5073854;28;20123;-46
2022/10/10 12:34:59;;;;;;;21.88;7.90;;;15.40;99.90;;;;;;5072104;28;20060;-47
2022/10/10 12:37:26;;;;;;;18.53;8.00;;;15.40;99.90;;;;;;5035198;28;1082040;-46
2022/10/10 12:40:20;;;;;;;23.35;7.82;;;15.40;99.90;;;;;;5075527;28;20063;-47
2022/10/10 12:43:18;;;;;;;13.88;7.72;;;15.40;99.90;;;;;;5073631;28;20136;-48
2022/10/10 12:46:07;;;;;;;20.38;8.23;;;15.40;99.90;;;;;;5019431;28;20119;-45
2022/10/10 12:48:34;;;;;;;18.42;8.85;;;15.40;99.90;;;;;;5070030;28;20041;-46
2022/10/10 12:51:02;;;;;;;20.08;9.13;;;15.30;99.90;;;;;;5075358;28;20127;-47
2022/10/10 12:53:31;;;;;;;14.77;8.50;;;15.30;99.90;;;;;;5074305;28;20810;-47